createdAt,value
2018-12-21T00:02:22.739Z,41.40
2018-12-21T00:04:51.898Z,39.67
2018-12-21T00:07:21.293Z,40.40
2018-12-21T00:09:50.601Z,39.63
2018-12-21T00:12:19.691Z,40.12
2018-12-21T00:14:49.292Z,40.52
2018-12-21T00:17:18.355Z,40.25
2018-12-21T00:19:47.613Z,38.92
2018-12-21T00:22:16.907Z,38.75
2018-12-21T00:24:45.987Z,39.13
2018-12-21T00:27:15.002Z,38.90
2018-12-21T00:29:44.384Z,39.40
2018-12-21T00:32:18.671Z,39.90
2018-12-21T00:34:52.705Z,38.13
2018-12-21T00:37:26.820Z,37.48
2018-12-21T00:40:01.060Z,37.63
2018-12-21T00:42:38.131Z,38.95
2018-12-21T00:45:09.367Z,37.88
2018-12-21T00:47:38.543Z,37.67
2018-12-21T00:50:08.537Z,36.48
2018-12-21T00:52:37.937Z,34.48
2018-12-21T00:55:07.196Z,35.20
2018-12-21T00:57:36.273Z,36.48
2018-12-21T01:00:06.641Z,36.40
2018-12-21T01:02:36.145Z,36.08
2018-12-21T01:05:05.382Z,36.77
2018-12-21T01:07:34.615Z,34.10
2018-12-21T01:10:03.952Z,34.30
2018-12-21T01:12:34.781Z,34.00
2018-12-21T01:15:04.058Z,34.45
2018-12-21T01:17:33.801Z,34.08
2018-12-21T01:20:02.948Z,34.00
2018-12-21T01:22:32.037Z,31.57
2018-12-21T01:25:01.401Z,32.15
2018-12-21T01:27:30.676Z,33.18
2018-12-21T01:29:59.891Z,32.85
2018-12-21T01:32:29.412Z,33.23
2018-12-21T01:34:58.908Z,31.25
2018-12-21T01:37:28.195Z,32.50
2018-12-21T01:39:57.582Z,31.35
2018-12-21T01:42:26.826Z,31.52
2018-12-21T01:44:56.233Z,31.85
2018-12-21T01:47:25.748Z,30.85
2018-12-21T01:49:55.087Z,29.87
2018-12-21T01:52:24.263Z,31.77
2018-12-21T01:54:53.609Z,30.82
2018-12-21T01:57:22.792Z,29.50
2018-12-21T01:59:51.901Z,30.92
2018-12-21T02:02:21.251Z,29.45
2018-12-21T02:04:50.564Z,31.27
2018-12-21T02:07:19.590Z,29.45
2018-12-21T02:09:48.823Z,30.88
2018-12-21T02:12:17.987Z,29.57
2018-12-21T02:14:47.194Z,29.85
2018-12-21T02:17:16.303Z,30.20
2018-12-21T02:19:45.699Z,30.00
2018-12-21T02:22:14.897Z,29.05
2018-12-21T02:24:44.084Z,29.07
2018-12-21T02:27:13.228Z,27.87
2018-12-21T02:29:42.620Z,28.23
2018-12-21T02:32:11.998Z,27.10
2018-12-21T02:34:41.117Z,29.07
2018-12-21T02:37:10.294Z,27.42
2018-12-21T02:39:39.352Z,27.77
2018-12-21T02:42:08.705Z,28.77
2018-12-21T02:44:37.896Z,26.68
2018-12-21T02:47:07.195Z,27.90
2018-12-21T02:49:36.414Z,27.17
2018-12-21T02:52:05.915Z,26.55
2018-12-21T02:54:35.572Z,25.75
2018-12-21T02:57:05.557Z,26.25
2018-12-21T02:59:34.771Z,26.35
2018-12-21T03:02:04.132Z,25.75
2018-12-21T03:04:33.216Z,25.65
2018-12-21T03:07:02.484Z,26.68
2018-12-21T03:09:31.555Z,26.10
2018-12-21T03:12:00.704Z,26.95
2018-12-21T03:14:29.942Z,26.23
2018-12-21T03:16:59.206Z,26.57
2018-12-21T03:19:28.414Z,25.65
2018-12-21T03:21:57.511Z,24.77
2018-12-21T03:24:26.719Z,26.23
2018-12-21T03:26:55.893Z,25.00
2018-12-21T03:29:24.897Z,24.80
2018-12-21T03:31:54.146Z,24.63
2018-12-21T03:34:23.303Z,25.52
2018-12-21T03:36:52.700Z,25.15
2018-12-21T03:39:21.691Z,23.47
2018-12-21T03:41:50.557Z,24.65
2018-12-21T03:44:19.866Z,24.27
2018-12-21T03:46:49.092Z,24.15
2018-12-21T03:49:18.347Z,24.40
2018-12-21T03:51:47.589Z,22.87
2018-12-21T03:54:16.809Z,25.00
2018-12-21T03:56:46.075Z,24.07
2018-12-21T03:59:15.323Z,25.08
2018-12-21T04:01:44.543Z,23.47
2018-12-21T04:04:13.905Z,23.15
2018-12-21T04:06:43.216Z,23.50
2018-12-21T04:09:12.505Z,23.00
2018-12-21T04:11:41.904Z,23.30
2018-12-21T04:14:11.170Z,22.73
2018-12-21T04:16:40.303Z,23.70
2018-12-21T04:19:09.497Z,22.93
2018-12-21T04:21:38.803Z,23.42
2018-12-21T04:24:08.025Z,22.40
2018-12-21T04:26:37.063Z,23.20
2018-12-21T04:29:06.169Z,23.02
2018-12-21T04:31:35.277Z,22.25
2018-12-21T04:34:04.604Z,22.30
2018-12-21T04:36:33.983Z,22.55
2018-12-21T04:39:04.230Z,21.97
2018-12-21T04:41:33.293Z,22.62
2018-12-21T04:44:02.380Z,21.60
2018-12-21T04:46:31.488Z,20.75
2018-12-21T04:49:00.803Z,22.00
2018-12-21T04:51:29.762Z,21.50
2018-12-21T04:53:58.956Z,21.60
2018-12-21T04:56:28.184Z,20.75
2018-12-21T04:58:57.288Z,21.68
2018-12-21T05:01:26.743Z,21.17
2018-12-21T05:03:56.093Z,21.10
2018-12-21T05:06:25.347Z,21.70
2018-12-21T05:08:54.651Z,20.77
2018-12-21T05:11:26.068Z,20.35
2018-12-21T05:13:55.346Z,20.92
2018-12-21T05:16:24.537Z,21.02
2018-12-21T05:18:53.835Z,20.68
2018-12-21T05:21:22.939Z,20.95
2018-12-21T05:23:52.187Z,20.12
2018-12-21T05:26:21.364Z,19.98
2018-12-21T05:28:50.308Z,20.72
2018-12-21T05:31:28.069Z,19.85
2018-12-21T05:33:51.569Z,20.25
2018-12-21T05:36:20.764Z,20.48
2018-12-21T05:38:49.857Z,19.57
2018-12-21T05:41:19.027Z,19.65
2018-12-21T05:43:48.209Z,19.85
2018-12-21T05:46:17.234Z,19.82
2018-12-21T05:48:46.376Z,19.98
2018-12-21T05:51:15.404Z,19.80
2018-12-21T05:53:44.464Z,19.20
2018-12-21T05:56:13.612Z,18.98
2018-12-21T05:58:42.743Z,18.48
2018-12-21T06:01:11.843Z,19.00
2018-12-21T06:03:40.936Z,18.05
2018-12-21T06:06:09.996Z,18.73
2018-12-21T06:08:39.160Z,17.55
2018-12-21T06:11:08.251Z,19.25
2018-12-21T06:13:37.409Z,18.67
2018-12-21T06:16:06.547Z,18.32
2018-12-21T06:18:35.747Z,18.20
2018-12-21T06:21:04.864Z,16.82
2018-12-21T06:23:34.020Z,18.27
2018-12-21T06:26:03.333Z,25.20
2018-12-21T06:28:32.369Z,21.73
2018-12-21T06:31:01.535Z,22.93
2018-12-21T06:33:30.803Z,28.70
2018-12-21T06:36:00.058Z,37.53
2018-12-21T06:38:29.335Z,36.58
2018-12-21T06:40:58.554Z,38.13
2018-12-21T06:43:27.728Z,47.45
2018-12-21T06:45:57.627Z,44.70
2018-12-21T06:48:26.976Z,49.73
2018-12-21T06:50:56.262Z,57.58
2018-12-21T06:53:25.656Z,45.10
2018-12-21T06:55:54.995Z,55.67
2018-12-21T06:58:24.227Z,46.75
2018-12-21T07:00:53.451Z,57.25
2018-12-21T07:03:22.772Z,51.18
2018-12-21T07:05:51.964Z,61.65
2018-12-21T07:08:21.147Z,68.52
2018-12-21T07:10:50.219Z,76.22
2018-12-21T07:13:19.320Z,69.67
2018-12-21T07:15:48.424Z,70.00
2018-12-21T07:18:17.369Z,78.70
2018-12-21T07:20:46.627Z,80.05
2018-12-21T07:23:15.962Z,54.00
2018-12-21T07:25:45.107Z,45.52
2018-12-21T07:28:14.377Z,75.78
2018-12-21T07:30:43.616Z,81.78
2018-12-21T07:33:12.818Z,76.53
2018-12-21T07:35:42.533Z,84.97
2018-12-21T07:38:11.549Z,53.33
2018-12-21T07:40:40.736Z,58.00
2018-12-21T07:43:10.055Z,80.83
2018-12-21T07:45:39.334Z,94.47
2018-12-21T07:48:08.643Z,87.02
2018-12-21T07:50:37.635Z,90.17
2018-12-21T07:53:06.594Z,87.78
2018-12-21T07:55:35.596Z,89.42
2018-12-21T07:58:04.578Z,99.90
2018-12-21T08:00:33.855Z,91.82
2018-12-21T08:03:03.176Z,94.10
2018-12-21T08:05:32.235Z,89.00
2018-12-21T08:08:01.505Z,91.30
2018-12-21T08:10:30.544Z,86.45
2018-12-21T08:12:59.819Z,86.10
2018-12-21T08:15:28.884Z,87.57
2018-12-21T08:17:58.056Z,88.20
2018-12-21T08:20:27.197Z,87.08
2018-12-21T08:22:56.351Z,90.57
2018-12-21T08:25:25.706Z,93.10
2018-12-21T08:27:55.009Z,88.05
2018-12-21T08:30:24.317Z,89.17
2018-12-21T08:32:53.619Z,85.17
2018-12-21T08:35:22.821Z,92.78
2018-12-21T08:37:51.904Z,72.82
2018-12-21T08:40:21.055Z,60.05
2018-12-21T08:42:50.405Z,60.80
2018-12-21T08:45:19.711Z,65.30
2018-12-21T08:47:48.896Z,67.45
2018-12-21T08:50:18.133Z,70.40
2018-12-21T08:52:47.151Z,70.62
2018-12-21T08:55:16.426Z,69.35
2018-12-21T08:57:45.711Z,61.70
2018-12-21T09:00:15.159Z,75.50
2018-12-21T09:02:44.433Z,64.92
2018-12-21T09:05:13.730Z,64.20
2018-12-21T09:07:43.060Z,64.00
2018-12-21T09:10:12.236Z,64.00
2018-12-21T09:12:41.504Z,64.25
2018-12-21T09:15:14.815Z,62.53
2018-12-21T09:17:43.896Z,64.27
2018-12-21T09:20:13.077Z,61.25
2018-12-21T09:22:42.162Z,56.98
2018-12-21T09:25:11.174Z,57.45
2018-12-21T09:27:40.368Z,55.90
2018-12-21T09:30:12.731Z,54.95
2018-12-21T09:32:41.970Z,56.25
2018-12-21T09:35:11.043Z,56.53
2018-12-21T09:37:40.368Z,58.08
2018-12-21T09:40:11.633Z,55.90
2018-12-21T09:42:41.003Z,55.83
2018-12-21T09:45:10.298Z,56.58
2018-12-21T09:47:39.462Z,58.10
2018-12-21T09:50:10.037Z,57.88
2018-12-21T09:52:39.029Z,55.88
2018-12-21T09:55:08.633Z,53.92
2018-12-21T09:57:37.927Z,55.38
2018-12-21T10:00:09.800Z,53.50
2018-12-21T10:02:39.105Z,55.20
2018-12-21T10:05:10.448Z,55.03
2018-12-21T10:07:39.581Z,54.38
2018-12-21T10:10:08.853Z,55.70
2018-12-21T10:12:38.248Z,54.10
2018-12-21T10:15:08.232Z,54.95
2018-12-21T10:17:37.495Z,54.93
2018-12-21T10:20:08.108Z,54.10
2018-12-21T10:22:37.354Z,53.48
2018-12-21T10:25:07.256Z,52.53
2018-12-21T10:27:36.400Z,54.33
2018-12-21T10:30:06.320Z,52.70
2018-12-21T10:32:35.431Z,51.80
2018-12-21T10:35:04.515Z,52.10
2018-12-21T10:37:33.849Z,51.42
2018-12-21T10:40:03.151Z,50.98
2018-12-21T10:42:31.959Z,52.23
2018-12-21T10:45:01.196Z,51.58
2018-12-21T10:47:30.187Z,50.03
2018-12-21T10:49:59.534Z,50.30
2018-12-21T10:52:28.813Z,50.92
2018-12-21T10:54:57.863Z,51.80
2018-12-21T10:57:27.025Z,50.28
2018-12-21T10:59:56.104Z,51.33
2018-12-21T11:02:25.212Z,49.73
2018-12-21T11:04:54.372Z,48.92
2018-12-21T11:07:23.396Z,47.67
2018-12-21T11:09:52.793Z,48.75
2018-12-21T11:12:21.932Z,46.65
2018-12-21T11:14:51.079Z,48.48
2018-12-21T11:17:20.316Z,48.60
2018-12-21T11:19:49.667Z,48.52
2018-12-21T11:22:18.799Z,47.27
2018-12-21T11:24:48.135Z,47.33
2018-12-21T11:27:17.495Z,45.48
2018-12-21T11:29:46.383Z,47.43
2018-12-21T11:32:15.139Z,47.60
2018-12-21T11:34:44.059Z,48.65
2018-12-21T11:37:12.929Z,44.73
2018-12-21T11:39:41.705Z,44.38
2018-12-21T11:42:10.888Z,45.03
2018-12-21T11:44:40.476Z,47.13
2018-12-21T11:47:09.654Z,47.53
2018-12-21T11:49:39.060Z,47.65
2018-12-21T11:52:08.291Z,45.90
2018-12-21T11:54:44.195Z,45.88
2018-12-21T11:57:08.537Z,45.45
2018-12-21T11:59:44.881Z,44.90
2018-12-21T12:02:09.008Z,44.48
2018-12-21T12:04:38.267Z,45.35
2018-12-21T12:07:07.659Z,46.98
2018-12-21T12:09:36.704Z,44.23
2018-12-21T12:12:05.955Z,45.30
2018-12-21T12:14:35.036Z,44.98
2018-12-21T12:17:04.097Z,44.63
2018-12-21T12:19:33.218Z,44.30
2018-12-21T12:22:02.437Z,44.48
2018-12-21T12:24:31.611Z,43.75
2018-12-21T12:27:00.796Z,43.10
2018-12-21T12:29:29.995Z,42.83
2018-12-21T12:31:59.245Z,43.63
2018-12-21T12:34:28.374Z,42.90
2018-12-21T12:36:58.078Z,42.67
2018-12-21T12:39:27.436Z,41.88
2018-12-21T12:41:56.746Z,43.05
2018-12-21T12:44:25.932Z,42.65
2018-12-21T12:46:55.148Z,42.45
2018-12-21T12:49:24.328Z,41.60
2018-12-21T12:51:53.782Z,42.10
2018-12-21T12:54:23.063Z,40.83
2018-12-21T12:56:52.348Z,42.03
2018-12-21T12:59:21.408Z,43.80
2018-12-21T13:01:50.665Z,42.73
2018-12-21T13:04:19.952Z,40.17
2018-12-21T13:06:49.131Z,40.85
2018-12-21T13:09:18.360Z,37.80
2018-12-21T13:11:47.663Z,40.55
2018-12-21T13:14:16.926Z,39.78
2018-12-21T13:16:45.968Z,40.30
2018-12-21T13:19:15.032Z,40.25
2018-12-21T13:21:44.008Z,39.13
2018-12-21T13:24:13.232Z,39.65
2018-12-21T13:26:42.524Z,40.70
2018-12-21T13:29:11.950Z,37.55
2018-12-21T13:31:41.001Z,38.17
2018-12-21T13:34:09.916Z,38.67
2018-12-21T13:36:38.997Z,40.40
2018-12-21T13:39:09.435Z,37.25
2018-12-21T13:41:38.664Z,38.13
2018-12-21T13:44:07.940Z,38.53
2018-12-21T13:46:37.259Z,38.55
2018-12-21T13:49:06.452Z,38.10
2018-12-21T13:51:35.766Z,37.08
2018-12-21T13:54:05.162Z,37.73
2018-12-21T13:56:34.315Z,38.60
2018-12-21T13:59:03.555Z,38.90
2018-12-21T14:01:32.606Z,36.10
2018-12-21T14:04:01.880Z,36.88
2018-12-21T14:06:31.103Z,35.65
2018-12-21T14:09:00.358Z,37.03
2018-12-21T14:11:30.299Z,36.13
2018-12-21T14:13:59.648Z,35.88
2018-12-21T14:16:28.991Z,36.48
2018-12-21T14:18:58.259Z,33.53
2018-12-21T14:21:27.581Z,35.23
2018-12-21T14:23:56.964Z,35.50
2018-12-21T14:26:26.263Z,36.45
2018-12-21T14:28:55.549Z,36.03
2018-12-21T14:31:24.764Z,36.20
2018-12-21T14:33:53.954Z,37.13
2018-12-21T14:36:23.139Z,35.25
2018-12-21T14:38:52.364Z,34.55
2018-12-21T14:41:21.690Z,33.85
2018-12-21T14:43:50.880Z,35.70
2018-12-21T14:46:20.265Z,34.70
2018-12-21T14:48:49.256Z,33.75
2018-12-21T14:51:18.473Z,34.60
2018-12-21T14:53:47.552Z,34.23
2018-12-21T14:56:16.751Z,34.88
2018-12-21T14:58:45.835Z,34.20
2018-12-21T15:01:15.080Z,36.08
2018-12-21T15:03:44.354Z,35.15
2018-12-21T15:06:13.539Z,33.55
2018-12-21T15:08:42.741Z,34.15
2018-12-21T15:11:11.850Z,34.75
2018-12-21T15:13:40.836Z,34.60
2018-12-21T15:16:10.096Z,33.95
2018-12-21T15:18:39.451Z,35.15
2018-12-21T15:21:08.647Z,35.25
2018-12-21T15:23:37.939Z,34.38
2018-12-21T15:26:07.152Z,37.45
2018-12-21T15:28:36.141Z,40.33
2018-12-21T15:31:05.428Z,36.60
2018-12-21T15:33:34.737Z,37.58
2018-12-21T15:36:03.840Z,38.23
2018-12-21T15:38:32.935Z,38.80
2018-12-21T15:41:02.180Z,43.78
2018-12-21T15:43:31.536Z,41.37
2018-12-21T15:46:00.750Z,44.70
2018-12-21T15:48:30.123Z,41.68
2018-12-21T15:50:59.363Z,43.73
2018-12-21T15:53:28.735Z,48.60
2018-12-21T15:55:57.790Z,46.75
2018-12-21T15:58:26.961Z,46.33
2018-12-21T16:00:56.147Z,46.40
2018-12-21T16:03:25.203Z,48.05
2018-12-21T16:05:54.216Z,56.40
2018-12-21T16:08:23.417Z,49.88
2018-12-21T16:10:52.748Z,49.85
2018-12-21T16:13:22.050Z,46.73
2018-12-21T16:15:51.234Z,49.15
2018-12-21T16:18:20.211Z,48.50
2018-12-21T16:20:49.333Z,48.92
2018-12-21T16:23:18.337Z,50.67
2018-12-21T16:25:47.394Z,54.77
2018-12-21T16:28:16.716Z,47.15
2018-12-21T16:30:45.793Z,49.10
2018-12-21T16:33:15.028Z,49.03
2018-12-21T16:35:44.284Z,48.80
2018-12-21T16:38:13.375Z,47.33
2018-12-21T16:40:42.581Z,49.05
2018-12-21T16:43:11.850Z,47.35
2018-12-21T16:45:41.054Z,46.95
2018-12-21T16:48:10.536Z,48.42
2018-12-21T16:50:39.707Z,48.63
2018-12-21T16:53:09.218Z,48.52
2018-12-21T16:55:38.285Z,49.15
2018-12-21T16:58:07.492Z,49.50
2018-12-21T17:00:36.621Z,48.73
2018-12-21T17:03:05.824Z,47.35
2018-12-21T17:05:35.460Z,48.25
2018-12-21T17:08:04.641Z,46.28
2018-12-21T17:10:33.577Z,47.38
2018-12-21T17:13:02.584Z,62.73
2018-12-21T17:15:31.639Z,77.60
2018-12-21T17:18:00.750Z,83.47
2018-12-21T17:20:29.906Z,60.33
2018-12-21T17:23:00.796Z,59.77
2018-12-21T17:25:30.756Z,64.27
2018-12-21T17:28:00.111Z,66.62
2018-12-21T17:30:29.160Z,59.33
2018-12-21T17:32:58.587Z,68.87
2018-12-21T17:35:27.594Z,74.22
2018-12-21T17:37:56.731Z,93.22
2018-12-21T17:40:25.812Z,73.80
2018-12-21T17:42:55.148Z,73.47
2018-12-21T17:45:24.284Z,89.92
2018-12-21T17:47:53.460Z,63.23
2018-12-21T17:50:22.521Z,68.75
2018-12-21T17:52:51.440Z,75.37
2018-12-21T17:55:20.704Z,80.32
2018-12-21T17:57:49.931Z,83.20
2018-12-21T18:00:20.753Z,79.00
2018-12-21T18:02:55.075Z,73.67
2018-12-21T18:05:25.214Z,73.60
2018-12-21T18:07:57.363Z,78.60
2018-12-21T18:10:26.780Z,89.35
2018-12-21T18:12:55.847Z,81.92
2018-12-21T18:15:24.918Z,83.42
2018-12-21T18:17:54.203Z,86.97
2018-12-21T18:20:23.363Z,81.35
2018-12-21T18:22:52.474Z,82.90
2018-12-21T18:25:26.915Z,103.40
2018-12-21T18:27:58.399Z,112.77
2018-12-21T18:30:31.409Z,103.22
2018-12-21T18:33:10.279Z,93.47
2018-12-21T18:35:34.003Z,121.70
2018-12-21T18:38:05.684Z,94.85
2018-12-21T18:40:35.211Z,97.78
2018-12-21T18:43:04.584Z,132.97
2018-12-21T18:45:33.812Z,129.30
2018-12-21T18:48:03.100Z,117.47
2018-12-21T18:50:32.922Z,106.85
2018-12-21T18:53:02.120Z,109.48
2018-12-21T18:55:31.572Z,106.27
2018-12-21T18:58:00.811Z,93.92
2018-12-21T19:00:30.172Z,128.60
2018-12-21T19:02:59.422Z,100.50
2018-12-21T19:05:28.629Z,120.80
2018-12-21T19:07:57.814Z,113.00
2018-12-21T19:10:27.632Z,113.70
2018-12-21T19:12:57.020Z,120.22
2018-12-21T19:15:26.233Z,104.97
2018-12-21T19:17:55.347Z,107.12
2018-12-21T19:20:24.612Z,106.87
2018-12-21T19:22:53.914Z,118.67
2018-12-21T19:25:23.296Z,123.18
2018-12-21T19:27:52.433Z,106.25
2018-12-21T19:30:21.425Z,111.08
2018-12-21T19:32:50.717Z,116.47
2018-12-21T19:35:27.270Z,140.75
2018-12-21T19:37:51.373Z,145.05
2018-12-21T19:40:20.663Z,127.07
2018-12-21T19:42:49.968Z,128.32
2018-12-21T19:45:19.257Z,120.40
2018-12-21T19:47:48.724Z,120.13
2018-12-21T19:50:17.977Z,112.75
2018-12-21T19:52:47.430Z,112.10
2018-12-21T19:55:44.991Z,116.47
2018-12-21T19:58:14.043Z,117.30
2018-12-21T20:00:43.009Z,114.80
2018-12-21T20:03:12.252Z,114.80
2018-12-21T20:05:41.470Z,114.57
2018-12-21T20:08:10.639Z,111.30
2018-12-21T20:10:39.508Z,109.35
2018-12-21T20:13:08.630Z,111.47
2018-12-21T20:15:37.840Z,108.90
2018-12-21T20:18:07.239Z,108.83
2018-12-21T20:20:36.635Z,109.32
2018-12-21T20:23:05.734Z,108.30
2018-12-21T20:25:34.733Z,108.72
2018-12-21T20:28:03.800Z,107.90
2018-12-21T20:30:33.197Z,104.95
2018-12-21T20:33:02.264Z,102.20
2018-12-21T20:35:31.587Z,104.65
2018-12-21T20:38:01.444Z,102.65
2018-12-21T20:40:30.662Z,103.55
2018-12-21T20:42:59.940Z,103.72
2018-12-21T20:45:29.148Z,106.15
2018-12-21T20:47:58.416Z,101.97
2018-12-21T20:50:27.555Z,99.20
2018-12-21T20:52:56.736Z,98.07
2018-12-21T20:55:25.938Z,102.75
2018-12-21T20:58:00.292Z,97.75
2018-12-21T21:00:29.452Z,99.70
2018-12-21T21:02:58.751Z,98.47
2018-12-21T21:05:28.055Z,101.25
2018-12-21T21:07:57.374Z,97.55
2018-12-21T21:10:26.667Z,97.62
2018-12-21T21:12:55.935Z,97.95
2018-12-21T21:15:24.964Z,95.05
2018-12-21T21:17:54.251Z,94.07
2018-12-21T21:20:23.353Z,94.90
2018-12-21T21:22:52.682Z,94.83
2018-12-21T21:25:21.743Z,95.35
2018-12-21T21:27:50.943Z,93.62
2018-12-21T21:30:20.577Z,92.92
2018-12-21T21:32:49.620Z,92.72
2018-12-21T21:35:18.873Z,93.33
2018-12-21T21:37:48.077Z,90.95
2018-12-21T21:40:18.954Z,92.95
2018-12-21T21:42:57.221Z,92.72
2018-12-21T21:45:20.120Z,90.42
2018-12-21T21:47:49.245Z,91.72
2018-12-21T21:50:18.447Z,90.00
2018-12-21T21:52:47.559Z,89.07
2018-12-21T21:55:16.781Z,88.72
2018-12-21T21:57:45.800Z,87.67
2018-12-21T22:00:15.344Z,87.45
2018-12-21T22:02:44.675Z,87.95
2018-12-21T22:05:13.835Z,86.22
2018-12-21T22:07:42.935Z,86.70
2018-12-21T22:10:12.344Z,83.35
2018-12-21T22:12:41.570Z,83.47
2018-12-21T22:15:11.253Z,82.22
2018-12-21T22:17:40.551Z,84.95
2018-12-21T22:20:11.426Z,83.47
2018-12-21T22:22:40.648Z,83.33
2018-12-21T22:25:09.908Z,84.32
2018-12-21T22:27:47.732Z,82.80
2018-12-21T22:30:11.821Z,79.97
2018-12-21T22:32:40.938Z,80.50
2018-12-21T22:35:10.168Z,79.42
2018-12-21T22:37:39.467Z,78.40
2018-12-21T22:40:08.741Z,76.50
2018-12-21T22:42:37.895Z,77.45
2018-12-21T22:45:07.910Z,79.35
2018-12-21T22:47:37.297Z,78.12
2018-12-21T22:50:07.959Z,75.90
2018-12-21T22:52:37.633Z,75.55
2018-12-21T22:55:07.885Z,75.22
2018-12-21T22:57:37.064Z,77.27
2018-12-21T23:00:10.915Z,76.25
2018-12-21T23:02:40.083Z,74.22
2018-12-21T23:05:09.363Z,74.95
2018-12-21T23:07:38.637Z,75.47
2018-12-21T23:10:08.507Z,73.60
2018-12-21T23:12:37.516Z,74.47
2018-12-21T23:15:06.861Z,72.27
2018-12-21T23:17:36.185Z,76.10
2018-12-21T23:20:05.302Z,75.28
2018-12-21T23:22:34.341Z,72.47
2018-12-21T23:25:03.565Z,73.97
2018-12-21T23:27:32.591Z,71.53
2018-12-21T23:30:01.683Z,70.62
2018-12-21T23:32:30.780Z,70.10
2018-12-21T23:34:59.958Z,69.58
2018-12-21T23:37:29.057Z,72.67
2018-12-21T23:39:58.367Z,70.03
2018-12-21T23:42:27.443Z,70.28
2018-12-21T23:44:56.662Z,67.72
2018-12-21T23:47:25.886Z,71.45
2018-12-21T23:49:55.499Z,69.65
2018-12-21T23:52:24.755Z,66.30
2018-12-21T23:54:53.884Z,66.87
2018-12-21T23:57:23.204Z,66.12
2018-12-21T23:59:52.439Z,67.60
